sensor_id;sensor_type;location;lat;lon;timestamp;temperature;humidity
44305;DHT22;30019;50.576;8.568;2023-09-19T00:11:29;15.30;99.90
44305;DHT22;30019;50.576;8.568;2023-09-19T00:13:56;16.40;99.90
44305;DHT22;30019;50.576;8.568;2023-09-19T00:16:24;16.30;99.90
44305;DHT22;30019;50.576;8.568;2023-09-19T00:18:51;16.20;99.90
44305;DHT22;30019;50.576;8.568;2023-09-19T00:21:16;16.20;99.90
44305;DHT22;30019;50.576;8.568;2023-09-19T00:23:41;16.20;99.90
44305;DHT22;30019;50.576;8.568;2023-09-19T00:26:07;16.20;99.90
44305;DHT22;30019;50.576;8.568;2023-09-19T00:28:32;16.20;99.90
44305;DHT22;30019;50.576;8.568;2023-09-19T00:30:58;16.20;99.90
44305;DHT22;30019;50.576;8.568;2023-09-19T01:42:02;15.40;99.90
44305;DHT22;30019;50.576;8.568;2023-09-19T01:47:26;15.40;99.90
44305;DHT22;30019;50.576;8.568;2023-09-19T01:50:13;15.30;99.90
44305;DHT22;30019;50.576;8.568;2023-09-19T01:52:53;15.20;99.90
44305;DHT22;30019;50.576;8.568;2023-09-19T01:55:19;15.20;99.90
44305;DHT22;30019;50.576;8.568;2023-09-19T01:57:48;15.20;99.90
44305;DHT22;30019;50.576;8.568;2023-09-19T02:00:15;15.20;99.90
44305;DHT22;30019;50.576;8.568;2023-09-19T02:02:43;15.10;99.90
44305;DHT22;30019;50.576;8.568;2023-09-19T02:05:10;15.10;99.90
44305;DHT22;30019;50.576;8.568;2023-09-19T02:07:35;15.20;99.90
44305;DHT22;30019;50.576;8.568;2023-09-19T02:10:03;15.20;99.90
44305;DHT22;30019;50.576;8.568;2023-09-19T02:12:31;15.30;99.90
44305;DHT22;30019;50.576;8.568;2023-09-19T02:14:58;15.30;99.90
44305;DHT22;30019;50.576;8.568;2023-09-19T02:17:24;15.40;99.90
44305;DHT22;30019;50.576;8.568;2023-09-19T02:19:54;15.50;99.90
44305;DHT22;30019;50.576;8.568;2023-09-19T02:22:24;15.60;99.90
44305;DHT22;30019;50.576;8.568;2023-09-19T02:24:50;15.60;99.90
44305;DHT22;30019;50.576;8.568;2023-09-19T02:27:16;15.70;99.90
44305;DHT22;30019;50.576;8.568;2023-09-19T02:29:42;15.60;99.90
44305;DHT22;30019;50.576;8.568;2023-09-19T02:32:08;15.60;99.90
44305;DHT22;30019;50.576;8.568;2023-09-19T02:34:37;15.60;99.90
44305;DHT22;30019;50.576;8.568;2023-09-19T02:37:04;15.70;99.90
44305;DHT22;30019;50.576;8.568;2023-09-19T02:39:30;15.80;99.90
44305;DHT22;30019;50.576;8.568;2023-09-19T02:41:56;15.80;99.90
44305;DHT22;30019;50.576;8.568;2023-09-19T02:44:21;15.80;99.90
44305;DHT22;30019;50.576;8.568;2023-09-19T02:46:49;15.80;99.90
44305;DHT22;30019;50.576;8.568;2023-09-19T02:49:14;15.80;99.90
44305;DHT22;30019;50.576;8.568;2023-09-19T02:51:40;15.80;99.90
44305;DHT22;30019;50.576;8.568;2023-09-19T02:54:05;15.70;99.90
44305;DHT22;30019;50.576;8.568;2023-09-19T02:56:31;15.70;99.90
44305;DHT22;30019;50.576;8.568;2023-09-19T02:58:57;15.60;99.90
44305;DHT22;30019;50.576;8.568;2023-09-19T03:01:23;15.60;99.90
44305;DHT22;30019;50.576;8.568;2023-09-19T03:03:48;15.60;99.90
44305;DHT22;30019;50.576;8.568;2023-09-19T03:06:14;15.50;99.90
44305;DHT22;30019;50.576;8.568;2023-09-19T03:08:40;15.50;99.90
44305;DHT22;30019;50.576;8.568;2023-09-19T03:11:07;15.50;99.90
44305;DHT22;30019;50.576;8.568;2023-09-19T03:13:36;15.50;99.90
44305;DHT22;30019;50.576;8.568;2023-09-19T03:16:03;15.50;99.90
44305;DHT22;30019;50.576;8.568;2023-09-19T03:18:31;15.50;99.90
44305;DHT22;30019;50.576;8.568;2023-09-19T03:20:57;15.50;99.90
44305;DHT22;30019;50.576;8.568;2023-09-19T03:23:25;15.50;99.90
44305;DHT22;30019;50.576;8.568;2023-09-19T03:25:51;15.50;99.90
44305;DHT22;30019;50.576;8.568;2023-09-19T03:28:17;15.60;99.90
44305;DHT22;30019;50.576;8.568;2023-09-19T03:30:43;15.50;99.90
44305;DHT22;30019;50.576;8.568;2023-09-19T03:33:09;15.60;99.90
44305;DHT22;30019;50.576;8.568;2023-09-19T03:35:37;15.60;99.90
44305;DHT22;30019;50.576;8.568;2023-09-19T03:38:03;15.60;99.90
44305;DHT22;30019;50.576;8.568;2023-09-19T03:40:29;15.60;99.90
44305;DHT22;30019;50.576;8.568;2023-09-19T03:42:55;15.60;99.90
44305;DHT22;30019;50.576;8.568;2023-09-19T03:45:20;15.50;99.90
44305;DHT22;30019;50.576;8.568;2023-09-19T03:47:46;15.50;99.90
44305;DHT22;30019;50.576;8.568;2023-09-19T03:50:15;15.40;99.90
44305;DHT22;30019;50.576;8.568;2023-09-19T03:52:45;15.30;99.90
44305;DHT22;30019;50.576;8.568;2023-09-19T03:55:10;15.30;99.90
44305;DHT22;30019;50.576;8.568;2023-09-19T03:57:36;15.20;99.90
44305;DHT22;30019;50.576;8.568;2023-09-19T04:00:02;15.10;99.90
44305;DHT22;30019;50.576;8.568;2023-09-19T04:02:30;15.10;99.90
44305;DHT22;30019;50.576;8.568;2023-09-19T04:04:58;15.00;99.90
44305;DHT22;30019;50.576;8.568;2023-09-19T04:07:23;14.90;99.90
44305;DHT22;30019;50.576;8.568;2023-09-19T04:09:51;14.80;99.90
44305;DHT22;30019;50.576;8.568;2023-09-19T04:12:18;14.70;99.90
44305;DHT22;30019;50.576;8.568;2023-09-19T04:14:44;14.70;99.90
44305;DHT22;30019;50.576;8.568;2023-09-19T04:17:10;14.70;99.90
44305;DHT22;30019;50.576;8.568;2023-09-19T04:19:36;14.60;99.90
44305;DHT22;30019;50.576;8.568;2023-09-19T04:22:01;14.60;99.90
44305;DHT22;30019;50.576;8.568;2023-09-19T04:24:28;14.50;99.90
44305;DHT22;30019;50.576;8.568;2023-09-19T04:26:53;14.40;99.90
44305;DHT22;30019;50.576;8.568;2023-09-19T04:29:19;14.40;99.90
44305;DHT22;30019;50.576;8.568;2023-09-19T04:31:45;14.40;99.90
44305;DHT22;30019;50.576;8.568;2023-09-19T04:34:11;14.30;99.90
44305;DHT22;30019;50.576;8.568;2023-09-19T04:36:40;14.40;99.90
44305;DHT22;30019;50.576;8.568;2023-09-19T04:39:05;14.30;99.90
44305;DHT22;30019;50.576;8.568;2023-09-19T04:41:32;14.30;99.90
44305;DHT22;30019;50.576;8.568;2023-09-19T04:43:58;14.20;99.90
44305;DHT22;30019;50.576;8.568;2023-09-19T04:46:23;14.20;99.90
44305;DHT22;30019;50.576;8.568;2023-09-19T04:48:49;14.20;99.90
44305;DHT22;30019;50.576;8.568;2023-09-19T04:51:14;14.20;99.90
44305;DHT22;30019;50.576;8.568;2023-09-19T04:53:40;14.10;99.90
44305;DHT22;30019;50.576;8.568;2023-09-19T04:56:06;14.20;99.90
44305;DHT22;30019;50.576;8.568;2023-09-19T04:58:33;14.20;99.90
44305;DHT22;30019;50.576;8.568;2023-09-19T05:00:59;14.20;99.90
44305;DHT22;30019;50.576;8.568;2023-09-19T05:03:24;14.20;99.90
44305;DHT22;30019;50.576;8.568;2023-09-19T05:05:50;14.20;99.90
44305;DHT22;30019;50.576;8.568;2023-09-19T05:08:15;14.20;99.90
44305;DHT22;30019;50.576;8.568;2023-09-19T05:10:41;14.10;99.90
44305;DHT22;30019;50.576;8.568;2023-09-19T05:13:06;14.20;99.90
44305;DHT22;30019;50.576;8.568;2023-09-19T05:15:35;14.10;99.90
44305;DHT22;30019;50.576;8.568;2023-09-19T05:18:01;14.10;99.90
44305;DHT22;30019;50.576;8.568;2023-09-19T05:20:26;14.00;99.90
44305;DHT22;30019;50.576;8.568;2023-09-19T05:22:59;14.00;99.90
44305;DHT22;30019;50.576;8.568;2023-09-19T05:25:27;14.00;99.90
44305;DHT22;30019;50.576;8.568;2023-09-19T05:27:56;13.90;99.90
44305;DHT22;30019;50.576;8.568;2023-09-19T05:30:23;13.90;99.90
44305;DHT22;30019;50.576;8.568;2023-09-19T05:32:49;13.90;99.90
44305;DHT22;30019;50.576;8.568;2023-09-19T05:35:16;13.80;99.90
44305;DHT22;30019;50.576;8.568;2023-09-19T05:37:42;13.80;99.90
44305;DHT22;30019;50.576;8.568;2023-09-19T05:40:07;13.80;99.90
44305;DHT22;30019;50.576;8.568;2023-09-19T05:42:34;13.90;99.90
44305;DHT22;30019;50.576;8.568;2023-09-19T05:45:00;13.90;99.90
44305;DHT22;30019;50.576;8.568;2023-09-19T05:47:25;13.90;99.90
44305;DHT22;30019;50.576;8.568;2023-09-19T05:49:51;14.00;99.90
44305;DHT22;30019;50.576;8.568;2023-09-19T05:52:17;14.00;99.90
44305;DHT22;30019;50.576;8.568;2023-09-19T05:54:43;14.20;99.90
44305;DHT22;30019;50.576;8.568;2023-09-19T05:57:08;14.20;99.90
44305;DHT22;30019;50.576;8.568;2023-09-19T05:59:34;14.20;99.90
44305;DHT22;30019;50.576;8.568;2023-09-19T06:01:59;14.20;99.90
44305;DHT22;30019;50.576;8.568;2023-09-19T06:04:25;14.20;99.90
44305;DHT22;30019;50.576;8.568;2023-09-19T06:06:51;14.20;99.90
44305;DHT22;30019;50.576;8.568;2023-09-19T06:09:16;14.30;99.90
44305;DHT22;30019;50.576;8.568;2023-09-19T06:11:42;14.40;99.90
44305;DHT22;30019;50.576;8.568;2023-09-19T06:14:08;14.40;99.90
44305;DHT22;30019;50.576;8.568;2023-09-19T06:16:35;14.40;99.90
44305;DHT22;30019;50.576;8.568;2023-09-19T06:19:01;14.50;99.90
44305;DHT22;30019;50.576;8.568;2023-09-19T06:21:27;14.50;99.90
44305;DHT22;30019;50.576;8.568;2023-09-19T06:23:53;14.70;99.90
44305;DHT22;30019;50.576;8.568;2023-09-19T06:26:18;14.60;99.90
44305;DHT22;30019;50.576;8.568;2023-09-19T06:28:44;14.60;99.90
44305;DHT22;30019;50.576;8.568;2023-09-19T06:31:10;14.70;99.90
44305;DHT22;30019;50.576;8.568;2023-09-19T06:33:36;14.80;99.90
44305;DHT22;30019;50.576;8.568;2023-09-19T06:36:05;14.80;99.90
44305;DHT22;30019;50.576;8.568;2023-09-19T06:38:30;14.90;99.90
44305;DHT22;30019;50.576;8.568;2023-09-19T06:40:56;15.00;99.90
44305;DHT22;30019;50.576;8.568;2023-09-19T06:43:23;15.10;99.90
44305;DHT22;30019;50.576;8.568;2023-09-19T06:45:49;15.20;99.90
44305;DHT22;30019;50.576;8.568;2023-09-19T06:48:17;15.30;99.90
44305;DHT22;30019;50.576;8.568;2023-09-19T06:50:43;15.30;99.90
44305;DHT22;30019;50.576;8.568;2023-09-19T06:53:09;15.30;99.90
44305;DHT22;30019;50.576;8.568;2023-09-19T06:55:35;15.40;99.90
44305;DHT22;30019;50.576;8.568;2023-09-19T06:58:02;15.50;99.90
44305;DHT22;30019;50.576;8.568;2023-09-19T07:00:27;15.50;99.90
44305;DHT22;30019;50.576;8.568;2023-09-19T07:05:29;15.50;99.90
44305;DHT22;30019;50.576;8.568;2023-09-19T07:07:56;15.50;99.90
44305;DHT22;30019;50.576;8.568;2023-09-19T07:10:24;15.60;99.90
44305;DHT22;30019;50.576;8.568;2023-09-19T07:12:59;15.70;99.90
44305;DHT22;30019;50.576;8.568;2023-09-19T07:15:25;15.70;99.90
44305;DHT22;30019;50.576;8.568;2023-09-19T07:17:51;15.70;99.90
44305;DHT22;30019;50.576;8.568;2023-09-19T07:20:58;15.70;99.90
44305;DHT22;30019;50.576;8.568;2023-09-19T07:23:30;15.70;99.90
44305;DHT22;30019;50.576;8.568;2023-09-19T07:26:00;15.70;99.90
44305;DHT22;30019;50.576;8.568;2023-09-19T07:28:26;15.80;99.90
44305;DHT22;30019;50.576;8.568;2023-09-19T07:30:52;15.90;99.90
44305;DHT22;30019;50.576;8.568;2023-09-19T07:33:18;15.90;99.90
44305;DHT22;30019;50.576;8.568;2023-09-19T07:35:46;16.00;99.90
44305;DHT22;30019;50.576;8.568;2023-09-19T07:38:12;16.00;99.90
44305;DHT22;30019;50.576;8.568;2023-09-19T07:40:37;16.00;99.90
44305;DHT22;30019;50.576;8.568;2023-09-19T07:43:03;16.00;99.90
44305;DHT22;30019;50.576;8.568;2023-09-19T07:45:32;16.00;99.90
44305;DHT22;30019;50.576;8.568;2023-09-19T07:47:58;16.00;99.90
44305;DHT22;30019;50.576;8.568;2023-09-19T07:50:32;16.00;99.90
44305;DHT22;30019;50.576;8.568;2023-09-19T07:52:58;16.00;99.90
44305;DHT22;30019;50.576;8.568;2023-09-19T07:55:24;16.00;99.90
44305;DHT22;30019;50.576;8.568;2023-09-19T07:57:51;16.00;99.90
44305;DHT22;30019;50.576;8.568;2023-09-19T08:00:17;16.20;99.90
44305;DHT22;30019;50.576;8.568;2023-09-19T08:02:42;16.30;99.90
44305;DHT22;30019;50.576;8.568;2023-09-19T08:05:08;16.40;99.90
44305;DHT22;30019;50.576;8.568;2023-09-19T08:07:37;16.30;99.90
44305;DHT22;30019;50.576;8.568;2023-09-19T08:10:03;16.30;99.90
44305;DHT22;30019;50.576;8.568;2023-09-19T08:12:29;16.30;99.90
44305;DHT22;30019;50.576;8.568;2023-09-19T08:14:55;16.20;99.90
44305;DHT22;30019;50.576;8.568;2023-09-19T08:17:21;16.30;99.90
44305;DHT22;30019;50.576;8.568;2023-09-19T08:19:48;16.40;99.90
44305;DHT22;30019;50.576;8.568;2023-09-19T08:22:14;16.50;99.90
44305;DHT22;30019;50.576;8.568;2023-09-19T08:24:42;16.60;99.90
44305;DHT22;30019;50.576;8.568;2023-09-19T08:27:08;16.60;99.90
44305;DHT22;30019;50.576;8.568;2023-09-19T08:29:35;16.60;99.90
44305;DHT22;30019;50.576;8.568;2023-09-19T08:32:00;16.60;99.90
44305;DHT22;30019;50.576;8.568;2023-09-19T08:34:26;16.70;99.90
44305;DHT22;30019;50.576;8.568;2023-09-19T08:36:52;16.80;99.90
44305;DHT22;30019;50.576;8.568;2023-09-19T08:39:22;16.90;99.90
44305;DHT22;30019;50.576;8.568;2023-09-19T08:41:47;16.90;99.90
44305;DHT22;30019;50.576;8.568;2023-09-19T08:44:13;16.90;99.90
44305;DHT22;30019;50.576;8.568;2023-09-19T08:46:40;16.90;99.90
44305;DHT22;30019;50.576;8.568;2023-09-19T08:49:41;16.90;99.90
44305;DHT22;30019;50.576;8.568;2023-09-19T08:51:58;16.90;99.90
44305;DHT22;30019;50.576;8.568;2023-09-19T08:54:28;16.90;99.90
44305;DHT22;30019;50.576;8.568;2023-09-19T08:56:54;17.00;99.90
44305;DHT22;30019;50.576;8.568;2023-09-19T08:59:22;17.30;99.90
44305;DHT22;30019;50.576;8.568;2023-09-19T09:01:52;17.40;99.90
44305;DHT22;30019;50.576;8.568;2023-09-19T09:04:18;17.50;99.90
44305;DHT22;30019;50.576;8.568;2023-09-19T09:06:45;17.40;99.90
44305;DHT22;30019;50.576;8.568;2023-09-19T09:09:15;17.20;99.90
44305;DHT22;30019;50.576;8.568;2023-09-19T09:11:40;17.20;99.90
44305;DHT22;30019;50.576;8.568;2023-09-19T09:14:06;17.30;99.90
44305;DHT22;30019;50.576;8.568;2023-09-19T09:16:32;17.30;99.90
44305;DHT22;30019;50.576;8.568;2023-09-19T09:18:58;17.40;99.90
44305;DHT22;30019;50.576;8.568;2023-09-19T09:21:24;17.40;99.90
44305;DHT22;30019;50.576;8.568;2023-09-19T09:23:50;17.50;99.90
44305;DHT22;30019;50.576;8.568;2023-09-19T09:26:16;17.60;99.90
44305;DHT22;30019;50.576;8.568;2023-09-19T09:28:45;17.50;99.90
44305;DHT22;30019;50.576;8.568;2023-09-19T09:31:24;17.50;99.90
44305;DHT22;30019;50.576;8.568;2023-09-19T09:33:53;17.60;99.90
44305;DHT22;30019;50.576;8.568;2023-09-19T09:36:19;17.60;99.90
44305;DHT22;30019;50.576;8.568;2023-09-19T09:38:59;17.70;99.90
44305;DHT22;30019;50.576;8.568;2023-09-19T09:41:35;18.00;99.90
44305;DHT22;30019;50.576;8.568;2023-09-19T09:44:15;18.00;99.90
44305;DHT22;30019;50.576;8.568;2023-09-19T09:46:43;17.90;99.90
44305;DHT22;30019;50.576;8.568;2023-09-19T09:49:15;17.80;99.90
44305;DHT22;30019;50.576;8.568;2023-09-19T09:52:00;18.00;99.90
44305;DHT22;30019;50.576;8.568;2023-09-19T09:54:31;18.00;99.90
44305;DHT22;30019;50.576;8.568;2023-09-19T09:57:02;17.90;99.90
44305;DHT22;30019;50.576;8.568;2023-09-19T09:59:54;18.00;99.90
44305;DHT22;30019;50.576;8.568;2023-09-19T10:02:27;17.90;99.90
44305;DHT22;30019;50.576;8.568;2023-09-19T10:05:11;17.70;99.90
44305;DHT22;30019;50.576;8.568;2023-09-19T10:07:40;18.00;99.90
44305;DHT22;30019;50.576;8.568;2023-09-19T10:10:15;18.60;99.90
44305;DHT22;30019;50.576;8.568;2023-09-19T10:12:54;18.70;99.90
44305;DHT22;30019;50.576;8.568;2023-09-19T10:15:21;18.90;99.90
44305;DHT22;30019;50.576;8.568;2023-09-19T10:17:49;19.00;99.90
44305;DHT22;30019;50.576;8.568;2023-09-19T10:20:19;18.90;99.90
44305;DHT22;30019;50.576;8.568;2023-09-19T10:22:57;18.80;99.90
44305;DHT22;30019;50.576;8.568;2023-09-19T10:25:27;19.10;99.90
44305;DHT22;30019;50.576;8.568;2023-09-19T10:27:57;19.10;99.90
44305;DHT22;30019;50.576;8.568;2023-09-19T10:30:24;18.80;99.90
44305;DHT22;30019;50.576;8.568;2023-09-19T10:32:59;19.10;99.90
44305;DHT22;30019;50.576;8.568;2023-09-19T10:35:25;18.80;99.90
44305;DHT22;30019;50.576;8.568;2023-09-19T10:37:51;18.40;99.90
44305;DHT22;30019;50.576;8.568;2023-09-19T10:40:19;18.20;99.90
44305;DHT22;30019;50.576;8.568;2023-09-19T10:42:45;18.20;99.90
44305;DHT22;30019;50.576;8.568;2023-09-19T10:45:11;18.40;99.90
44305;DHT22;30019;50.576;8.568;2023-09-19T10:47:40;19.00;99.90
44305;DHT22;30019;50.576;8.568;2023-09-19T10:50:06;19.80;99.90
44305;DHT22;30019;50.576;8.568;2023-09-19T10:52:31;19.50;99.90
44305;DHT22;30019;50.576;8.568;2023-09-19T10:55:00;19.40;99.90
44305;DHT22;30019;50.576;8.568;2023-09-19T10:57:27;19.20;99.90
44305;DHT22;30019;50.576;8.568;2023-09-19T11:00:06;19.30;99.90
44305;DHT22;30019;50.576;8.568;2023-09-19T11:05:36;18.70;99.90
44305;DHT22;30019;50.576;8.568;2023-09-19T11:08:08;18.70;99.90
44305;DHT22;30019;50.576;8.568;2023-09-19T11:13:24;18.90;99.90
44305;DHT22;30019;50.576;8.568;2023-09-19T11:26:44;20.00;99.70
44305;DHT22;30019;50.576;8.568;2023-09-19T11:29:29;19.90;99.90
44305;DHT22;30019;50.576;8.568;2023-09-19T11:31:56;19.90;99.90
44305;DHT22;30019;50.576;8.568;2023-09-19T11:34:39;20.30;99.90
44305;DHT22;30019;50.576;8.568;2023-09-19T11:39:39;21.00;98.00
44305;DHT22;30019;50.576;8.568;2023-09-19T11:44:52;20.40;97.10
44305;DHT22;30019;50.576;8.568;2023-09-19T11:47:21;20.10;98.20
44305;DHT22;30019;50.576;8.568;2023-09-19T11:49:47;20.10;97.90
44305;DHT22;30019;50.576;8.568;2023-09-19T11:52:16;20.10;98.60
44305;DHT22;30019;50.576;8.568;2023-09-19T11:54:47;21.10;96.70
44305;DHT22;30019;50.576;8.568;2023-09-19T11:57:20;21.30;96.20
44305;DHT22;30019;50.576;8.568;2023-09-19T11:59:46;21.20;95.90
44305;DHT22;30019;50.576;8.568;2023-09-19T12:02:14;21.10;96.00
44305;DHT22;30019;50.576;8.568;2023-09-19T12:04:46;21.60;94.60
44305;DHT22;30019;50.576;8.568;2023-09-19T12:07:14;21.70;94.70
44305;DHT22;30019;50.576;8.568;2023-09-19T12:12:12;23.10;91.50
44305;DHT22;30019;50.576;8.568;2023-09-19T12:14:48;22.20;92.90
44305;DHT22;30019;50.576;8.568;2023-09-19T12:17:14;22.20;92.20
44305;DHT22;30019;50.576;8.568;2023-09-19T12:19:49;21.90;91.70
44305;DHT22;30019;50.576;8.568;2023-09-19T12:22:15;22.20;95.40
44305;DHT22;30019;50.576;8.568;2023-09-19T12:24:41;22.40;92.40
44305;DHT22;30019;50.576;8.568;2023-09-19T12:27:09;22.00;91.90
44305;DHT22;30019;50.576;8.568;2023-09-19T12:29:43;21.20;91.30
44305;DHT22;30019;50.576;8.568;2023-09-19T12:32:09;21.20;92.90
44305;DHT22;30019;50.576;8.568;2023-09-19T12:34:35;21.30;92.20
44305;DHT22;30019;50.576;8.568;2023-09-19T12:37:04;21.60;91.50
44305;DHT22;30019;50.576;8.568;2023-09-19T12:39:53;21.80;94.90
44305;DHT22;30019;50.576;8.568;2023-09-19T12:42:21;21.70;90.80
44305;DHT22;30019;50.576;8.568;2023-09-19T12:44:48;21.30;90.30
44305;DHT22;30019;50.576;8.568;2023-09-19T12:47:14;21.50;91.80
44305;DHT22;30019;50.576;8.568;2023-09-19T12:52:37;20.90;90.30
44305;DHT22;30019;50.576;8.568;2023-09-19T12:55:03;21.00;91.00
44305;DHT22;30019;50.576;8.568;2023-09-19T12:57:30;20.60;91.40
44305;DHT22;30019;50.576;8.568;2023-09-19T13:00:02;20.60;91.20
44305;DHT22;30019;50.576;8.568;2023-09-19T13:02:31;20.60;91.90
44305;DHT22;30019;50.576;8.568;2023-09-19T13:04:56;20.50;92.50
44305;DHT22;30019;50.576;8.568;2023-09-19T13:07:44;20.60;91.50
44305;DHT22;30019;50.576;8.568;2023-09-19T13:10:14;20.60;91.90
44305;DHT22;30019;50.576;8.568;2023-09-19T13:12:42;20.70;92.10
44305;DHT22;30019;50.576;8.568;2023-09-19T13:15:13;21.20;93.60
44305;DHT22;30019;50.576;8.568;2023-09-19T13:17:44;20.90;90.90
44305;DHT22;30019;50.576;8.568;2023-09-19T13:22:55;21.30;91.30
44305;DHT22;30019;50.576;8.568;2023-09-19T13:25:25;21.30;91.30
44305;DHT22;30019;50.576;8.568;2023-09-19T13:27:52;21.40;90.90
44305;DHT22;30019;50.576;8.568;2023-09-19T13:30:20;21.40;90.00
44305;DHT22;30019;50.576;8.568;2023-09-19T13:32:46;21.50;90.90
44305;DHT22;30019;50.576;8.568;2023-09-19T13:35:15;21.60;89.00
44305;DHT22;30019;50.576;8.568;2023-09-19T13:37:41;21.50;90.50
44305;DHT22;30019;50.576;8.568;2023-09-19T13:40:08;21.50;90.30
44305;DHT22;30019;50.576;8.568;2023-09-19T13:42:34;21.70;90.40
44305;DHT22;30019;50.576;8.568;2023-09-19T13:44:59;20.80;89.40
44305;DHT22;30019;50.576;8.568;2023-09-19T13:47:25;20.60;90.70
44305;DHT22;30019;50.576;8.568;2023-09-19T13:49:52;20.80;91.70
44305;DHT22;30019;50.576;8.568;2023-09-19T13:52:18;21.20;90.40
44305;DHT22;30019;50.576;8.568;2023-09-19T13:54:44;21.20;91.60
44305;DHT22;30019;50.576;8.568;2023-09-19T13:57:09;21.00;92.80
44305;DHT22;30019;50.576;8.568;2023-09-19T13:59:35;20.90;90.70
44305;DHT22;30019;50.576;8.568;2023-09-19T14:02:00;20.60;91.20
44305;DHT22;30019;50.576;8.568;2023-09-19T14:04:27;20.70;90.60
44305;DHT22;30019;50.576;8.568;2023-09-19T14:06:54;20.80;91.40
44305;DHT22;30019;50.576;8.568;2023-09-19T14:09:19;21.10;92.30
44305;DHT22;30019;50.576;8.568;2023-09-19T14:11:45;21.40;92.30
44305;DHT22;30019;50.576;8.568;2023-09-19T14:14:12;21.60;91.90
44305;DHT22;30019;50.576;8.568;2023-09-19T14:16:39;21.40;91.70
44305;DHT22;30019;50.576;8.568;2023-09-19T14:19:07;21.20;90.60
44305;DHT22;30019;50.576;8.568;2023-09-19T14:21:33;21.00;91.70
44305;DHT22;30019;50.576;8.568;2023-09-19T14:23:58;20.90;91.60
44305;DHT22;30019;50.576;8.568;2023-09-19T14:26:24;20.90;91.50
44305;DHT22;30019;50.576;8.568;2023-09-19T14:28:49;20.80;91.40
44305;DHT22;30019;50.576;8.568;2023-09-19T14:31:15;20.80;91.30
44305;DHT22;30019;50.576;8.568;2023-09-19T14:33:40;20.80;93.10
44305;DHT22;30019;50.576;8.568;2023-09-19T14:36:07;21.00;92.20
44305;DHT22;30019;50.576;8.568;2023-09-19T14:38:34;20.90;91.30
44305;DHT22;30019;50.576;8.568;2023-09-19T14:41:03;20.70;92.30
44305;DHT22;30019;50.576;8.568;2023-09-19T14:43:29;20.60;92.30
44305;DHT22;30019;50.576;8.568;2023-09-19T14:46:07;20.50;92.20
44305;DHT22;30019;50.576;8.568;2023-09-19T14:48:33;20.60;94.90
44305;DHT22;30019;50.576;8.568;2023-09-19T14:51:05;20.80;91.90
44305;DHT22;30019;50.576;8.568;2023-09-19T14:53:32;20.90;92.20
44305;DHT22;30019;50.576;8.568;2023-09-19T14:56:01;20.70;92.00
44305;DHT22;30019;50.576;8.568;2023-09-19T14:58:29;20.80;92.20
44305;DHT22;30019;50.576;8.568;2023-09-19T15:01:05;20.60;92.30
44305;DHT22;30019;50.576;8.568;2023-09-19T15:03:34;20.40;92.60
44305;DHT22;30019;50.576;8.568;2023-09-19T15:08:30;20.40;93.70
44305;DHT22;30019;50.576;8.568;2023-09-19T15:10:56;20.50;92.20
44305;DHT22;30019;50.576;8.568;2023-09-19T15:13:23;20.80;92.50
44305;DHT22;30019;50.576;8.568;2023-09-19T15:15:58;20.70;92.10
44305;DHT22;30019;50.576;8.568;2023-09-19T15:18:23;20.70;92.50
44305;DHT22;30019;50.576;8.568;2023-09-19T15:20:49;20.70;91.00
44305;DHT22;30019;50.576;8.568;2023-09-19T15:23:14;20.80;92.00
44305;DHT22;30019;50.576;8.568;2023-09-19T15:25:47;20.50;90.90
44305;DHT22;30019;50.576;8.568;2023-09-19T15:28:13;20.40;91.80
44305;DHT22;30019;50.576;8.568;2023-09-19T15:30:38;20.30;91.80
44305;DHT22;30019;50.576;8.568;2023-09-19T15:33:04;20.10;91.60
44305;DHT22;30019;50.576;8.568;2023-09-19T15:35:29;20.10;91.70
44305;DHT22;30019;50.576;8.568;2023-09-19T15:37:55;20.00;91.50
44305;DHT22;30019;50.576;8.568;2023-09-19T15:40:21;20.00;92.10
44305;DHT22;30019;50.576;8.568;2023-09-19T15:42:49;20.00;91.60
44305;DHT22;30019;50.576;8.568;2023-09-19T15:45:14;20.10;91.70
44305;DHT22;30019;50.576;8.568;2023-09-19T15:47:41;20.10;92.80
44305;DHT22;30019;50.576;8.568;2023-09-19T15:50:07;20.00;93.00
44305;DHT22;30019;50.576;8.568;2023-09-19T15:52:35;20.10;92.10
44305;DHT22;30019;50.576;8.568;2023-09-19T15:55:02;19.90;91.50
44305;DHT22;30019;50.576;8.568;2023-09-19T15:57:28;19.90;91.80
44305;DHT22;30019;50.576;8.568;2023-09-19T15:59:54;19.90;92.70
44305;DHT22;30019;50.576;8.568;2023-09-19T16:02:19;19.80;92.40
44305;DHT22;30019;50.576;8.568;2023-09-19T16:04:45;19.80;92.50
44305;DHT22;30019;50.576;8.568;2023-09-19T16:07:10;19.90;94.20
44305;DHT22;30019;50.576;8.568;2023-09-19T16:09:36;19.90;92.10
44305;DHT22;30019;50.576;8.568;2023-09-19T16:12:01;19.70;93.20
44305;DHT22;30019;50.576;8.568;2023-09-19T16:14:28;19.80;92.80
44305;DHT22;30019;50.576;8.568;2023-09-19T16:16:56;19.70;92.60
44305;DHT22;30019;50.576;8.568;2023-09-19T16:19:23;19.80;92.70
44305;DHT22;30019;50.576;8.568;2023-09-19T16:21:48;19.80;95.00
44305;DHT22;30019;50.576;8.568;2023-09-19T16:24:14;19.80;96.00
44305;DHT22;30019;50.576;8.568;2023-09-19T16:26:39;19.70;93.70
44305;DHT22;30019;50.576;8.568;2023-09-19T16:29:05;19.60;93.20
44305;DHT22;30019;50.576;8.568;2023-09-19T16:31:31;19.60;93.60
44305;DHT22;30019;50.576;8.568;2023-09-19T16:33:58;19.60;94.90
44305;DHT22;30019;50.576;8.568;2023-09-19T16:36:24;19.70;99.90
44305;DHT22;30019;50.576;8.568;2023-09-19T16:38:50;19.60;99.90
44305;DHT22;30019;50.576;8.568;2023-09-19T16:41:16;19.50;99.90
44305;DHT22;30019;50.576;8.568;2023-09-19T16:43:42;19.50;99.90
44305;DHT22;30019;50.576;8.568;2023-09-19T16:46:09;19.50;99.90
44305;DHT22;30019;50.576;8.568;2023-09-19T16:48:39;19.40;99.90
44305;DHT22;30019;50.576;8.568;2023-09-19T16:51:07;19.30;99.90
44305;DHT22;30019;50.576;8.568;2023-09-19T16:53:33;19.30;99.90
44305;DHT22;30019;50.576;8.568;2023-09-19T16:56:09;19.20;99.90
44305;DHT22;30019;50.576;8.568;2023-09-19T16:58:42;19.10;99.90
44305;DHT22;30019;50.576;8.568;2023-09-19T17:01:08;19.10;99.90
44305;DHT22;30019;50.576;8.568;2023-09-19T17:03:37;19.00;99.90
44305;DHT22;30019;50.576;8.568;2023-09-19T17:06:02;19.00;99.90
44305;DHT22;30019;50.576;8.568;2023-09-19T17:08:31;19.00;99.90
44305;DHT22;30019;50.576;8.568;2023-09-19T17:11:03;18.90;99.90
44305;DHT22;30019;50.576;8.568;2023-09-19T17:13:29;18.80;99.90
44305;DHT22;30019;50.576;8.568;2023-09-19T17:15:59;18.80;99.90
44305;DHT22;30019;50.576;8.568;2023-09-19T17:18:24;18.70;99.90
44305;DHT22;30019;50.576;8.568;2023-09-19T17:25:42;17.50;99.90
44305;DHT22;30019;50.576;8.568;2023-09-19T17:30:33;18.00;99.90
44305;DHT22;30019;50.576;8.568;2023-09-19T17:33:01;18.10;99.90
44305;DHT22;30019;50.576;8.568;2023-09-19T17:35:26;18.00;99.90
44305;DHT22;30019;50.576;8.568;2023-09-19T17:37:52;18.00;99.90